Startpagina
METAR-TAF:

METAR-TAF

Vliegvelden :

Militair vliegvled Lanvéoc-Poulmic

Lanvéoc, Frankrijk

breedte: 48-17N, lengte: 004-26W, hoogte: 87 m

Actueel weer

Dit bericht is 33 minuten geleden gemaakt, om 19:00 UTC
Wind 6 kt uit het oostnoordoosten, variërend tussen het noordoosten en het oosten
Temperatuur 6°C
Vochtigheid 81%
Druk 1019 hPa
Zicht: 7000 m

METAR: LFRL 241900Z AUTO 07006KT 040V100 7000 NSC 06/03 Q1019

Tijdstip: 20:33 (19:33 UTC)

Verwachting

Dit bericht is 8 uur en het 33 minuten geleden gemaakt, om 11:00 UTC
Verwachting geldig van 24 om 12 UTC tot 25 om 12 UTC
Wind 10 kt uit het noordoosten
Zicht: 4500 m
nevel
Wijzigt naar
van 24 om 18 UTC tot 24 om 20 UTC
Gebroken wolken op 900 ft
Wijzigt naar
van 24 om 20 UTC tot 24 om 22 UTC
Zicht: 1500 m
Gebroken wolken op 400 ft
nevel
Tijdelijke
van 24 om 22 UTC tot 25 om 12 UTC
Zicht: 0200 m
lichte motregen, mist

TAF: LFRL 241100Z 2412/2512 05010KT 4500 BR NSC BECMG 2418/2420 BKN009 BECMG 2420/2422 1500 BR BKN004 TEMPO 2422/2512 0200 -DZ FG VV///

Waarnemingen en weersverwachtingen van meer dan 4000 vliegvelden (METAR en TAF).

De beschikbare stations zijn de gele en rode punten op de kaart.

Ga met uw muis naar het station om de naam te zien.

Klik dan om waarnemingen en weersverwachtingen te zien.

kaart wijzigen: klik op de groene knoppen met een zwart kruis om in te zoomen, op de groene knop met een streepje om uit te zoomen of op de groene pijlen voor aangrenzende kaarten.


METAR-TAF: